sensor_id;sensor_type;location;lat;lon;timestamp;pressure;altitude;pressure_sealevel;temperature;humidity
73700;BME280;62005;50.082;8.988;2023-07-22T00:02:01;100334.72;;;16.25;88.24
73700;BME280;62005;50.082;8.988;2023-07-22T00:04:26;100349.53;;;16.34;88.28
73700;BME280;62005;50.082;8.988;2023-07-22T00:06:52;100358.19;;;16.26;88.50
73700;BME280;62005;50.082;8.988;2023-07-22T00:09:37;100385.03;;;16.39;89.20
73700;BME280;62005;50.082;8.988;2023-07-22T00:12:15;100370.75;;;16.27;89.02
73700;BME280;62005;50.082;8.988;2023-07-22T00:14:41;100378.44;;;16.35;89.05
73700;BME280;62005;50.082;8.988;2023-07-22T00:17:07;100377.09;;;16.32;89.07
73700;BME280;62005;50.082;8.988;2023-07-22T00:19:32;100384.97;;;16.29;88.96
73700;BME280;62005;50.082;8.988;2023-07-22T00:21:59;100386.63;;;16.35;90.15
73700;BME280;62005;50.082;8.988;2023-07-22T00:24:24;100369.13;;;16.26;89.28
73700;BME280;62005;50.082;8.988;2023-07-22T00:26:49;100364.19;;;16.23;89.01
73700;BME280;62005;50.082;8.988;2023-07-22T00:29:16;100383.31;;;16.28;89.32
73700;BME280;62005;50.082;8.988;2023-07-22T00:31:41;100370.97;;;16.20;89.30
73700;BME280;62005;50.082;8.988;2023-07-22T00:34:08;100388.78;;;16.28;89.42
73700;BME280;62005;50.082;8.988;2023-07-22T00:36:34;100392.00;;;16.25;90.44
73700;BME280;62005;50.082;8.988;2023-07-22T00:38:59;100383.00;;;16.24;89.76
73700;BME280;62005;50.082;8.988;2023-07-22T00:41:26;100381.88;;;16.20;90.09
73700;BME280;62005;50.082;8.988;2023-07-22T00:43:52;100384.34;;;16.22;89.51
73700;BME280;62005;50.082;8.988;2023-07-22T00:46:17;100386.50;;;16.20;89.78
73700;BME280;62005;50.082;8.988;2023-07-22T00:48:43;100386.81;;;16.23;88.92
73700;BME280;62005;50.082;8.988;2023-07-22T00:51:08;100387.06;;;16.22;89.22
73700;BME280;62005;50.082;8.988;2023-07-22T00:53:43;100384.34;;;16.22;90.14
73700;BME280;62005;50.082;8.988;2023-07-22T00:56:20;100374.47;;;16.16;88.97
73700;BME280;62005;50.082;8.988;2023-07-22T01:04:38;100342.09;;;15.93;88.64
73700;BME280;62005;50.082;8.988;2023-07-22T01:07:29;100365.09;;;16.07;88.36
73700;BME280;62005;50.082;8.988;2023-07-22T01:10:03;100385.28;;;16.06;89.54
73700;BME280;62005;50.082;8.988;2023-07-22T01:12:43;100373.53;;;16.05;88.56
73700;BME280;62005;50.082;8.988;2023-07-22T01:15:10;100363.88;;;15.93;88.65
73700;BME280;62005;50.082;8.988;2023-07-22T01:17:37;100349.06;;;15.84;88.11
73700;BME280;62005;50.082;8.988;2023-07-22T01:20:03;100374.28;;;15.96;90.06
73700;BME280;62005;50.082;8.988;2023-07-22T01:22:29;100378.09;;;15.95;89.99
73700;BME280;62005;50.082;8.988;2023-07-22T01:24:55;100380.25;;;15.93;90.43
73700;BME280;62005;50.082;8.988;2023-07-22T01:27:20;100371.19;;;15.87;88.65
73700;BME280;62005;50.082;8.988;2023-07-22T01:29:46;100373.66;;;15.89;88.65
73700;BME280;62005;50.082;8.988;2023-07-22T01:32:11;100381.25;;;15.87;89.17
73700;BME280;62005;50.082;8.988;2023-07-22T01:34:36;100375.53;;;15.83;88.63
73700;BME280;62005;50.082;8.988;2023-07-22T01:37:05;100376.22;;;15.74;88.69
73700;BME280;62005;50.082;8.988;2023-07-22T01:39:30;100376.72;;;15.71;88.31
73700;BME280;62005;50.082;8.988;2023-07-22T01:41:56;100384.91;;;15.71;88.98
73700;BME280;62005;50.082;8.988;2023-07-22T01:44:21;100375.81;;;15.60;89.39
73700;BME280;62005;50.082;8.988;2023-07-22T01:46:50;100370.56;;;15.53;89.31
73700;BME280;62005;50.082;8.988;2023-07-22T01:49:15;100383.09;;;15.54;89.88
73700;BME280;62005;50.082;8.988;2023-07-22T01:51:41;100392.16;;;15.60;89.67
73700;BME280;62005;50.082;8.988;2023-07-22T01:54:07;100403.28;;;15.58;89.45
73700;BME280;62005;50.082;8.988;2023-07-22T01:56:34;100395.63;;;15.55;90.97
73700;BME280;62005;50.082;8.988;2023-07-22T01:59:00;100386.28;;;15.46;89.96
73700;BME280;62005;50.082;8.988;2023-07-22T02:01:34;100376.84;;;15.37;89.71
73700;BME280;62005;50.082;8.988;2023-07-22T02:04:04;100368.09;;;15.35;89.75
73700;BME280;62005;50.082;8.988;2023-07-22T02:06:32;100335.06;;;15.05;89.56
73700;BME280;62005;50.082;8.988;2023-07-22T02:09:06;100371.84;;;15.29;89.82
73700;BME280;62005;50.082;8.988;2023-07-22T02:12:07;100352.34;;;15.16;89.48
73700;BME280;62005;50.082;8.988;2023-07-22T02:14:36;100386.28;;;15.30;90.21
73700;BME280;62005;50.082;8.988;2023-07-22T02:17:04;100389.28;;;15.28;91.87
73700;BME280;62005;50.082;8.988;2023-07-22T02:19:29;100378.31;;;15.23;90.46
73700;BME280;62005;50.082;8.988;2023-07-22T02:21:55;100382.41;;;15.26;89.78
73700;BME280;62005;50.082;8.988;2023-07-22T02:24:20;100393.56;;;15.24;89.91
73700;BME280;62005;50.082;8.988;2023-07-22T02:26:46;100379.25;;;15.12;89.40
73700;BME280;62005;50.082;8.988;2023-07-22T02:29:16;100357.03;;;14.99;89.94
73700;BME280;62005;50.082;8.988;2023-07-22T02:31:46;100366.56;;;15.01;90.65
73700;BME280;62005;50.082;8.988;2023-07-22T02:34:14;100356.69;;;14.95;89.85
73700;BME280;62005;50.082;8.988;2023-07-22T02:36:58;100335.47;;;14.76;89.61
73700;BME280;62005;50.082;8.988;2023-07-22T02:39:27;100357.22;;;14.92;89.45
73700;BME280;62005;50.082;8.988;2023-07-22T02:41:52;100386.13;;;14.98;90.17
73700;BME280;62005;50.082;8.988;2023-07-22T02:44:17;100391.00;;;14.96;89.72
73700;BME280;62005;50.082;8.988;2023-07-22T02:46:43;100376.19;;;14.87;89.14
73700;BME280;62005;50.082;8.988;2023-07-22T02:49:08;100381.56;;;14.82;89.22
73700;BME280;62005;50.082;8.988;2023-07-22T02:51:34;100383.69;;;14.80;89.42
73700;BME280;62005;50.082;8.988;2023-07-22T02:54:02;100390.69;;;14.76;89.47
73700;BME280;62005;50.082;8.988;2023-07-22T02:56:28;100356.94;;;14.56;89.13
73700;BME280;62005;50.082;8.988;2023-07-22T02:58:54;100343.94;;;14.41;89.12
73700;BME280;62005;50.082;8.988;2023-07-22T03:01:19;100367.97;;;14.49;89.54
73700;BME280;62005;50.082;8.988;2023-07-22T03:03:47;100394.84;;;14.62;88.94
73700;BME280;62005;50.082;8.988;2023-07-22T03:06:13;100387.09;;;14.54;89.50
73700;BME280;62005;50.082;8.988;2023-07-22T03:08:39;100398.63;;;14.61;89.49
73700;BME280;62005;50.082;8.988;2023-07-22T03:11:04;100400.78;;;14.59;89.73
73700;BME280;62005;50.082;8.988;2023-07-22T03:13:29;100387.66;;;14.56;89.98
73700;BME280;62005;50.082;8.988;2023-07-22T03:15:55;100392.63;;;14.59;90.21
73700;BME280;62005;50.082;8.988;2023-07-22T03:18:21;100390.16;;;14.58;89.99
73700;BME280;62005;50.082;8.988;2023-07-22T03:20:46;100406.22;;;14.59;90.27
73700;BME280;62005;50.082;8.988;2023-07-22T03:23:12;100396.81;;;14.50;90.70
73700;BME280;62005;50.082;8.988;2023-07-22T03:25:37;100400.72;;;14.54;90.27
73700;BME280;62005;50.082;8.988;2023-07-22T03:28:04;100405.56;;;14.52;90.72
73700;BME280;62005;50.082;8.988;2023-07-22T03:30:30;100410.16;;;14.52;90.04
73700;BME280;62005;50.082;8.988;2023-07-22T03:32:55;100403.84;;;14.46;90.30
73700;BME280;62005;50.082;8.988;2023-07-22T03:35:21;100392.03;;;14.41;90.08
73700;BME280;62005;50.082;8.988;2023-07-22T03:37:47;100408.19;;;14.47;90.20
73700;BME280;62005;50.082;8.988;2023-07-22T03:40:12;100412.31;;;14.50;90.63
73700;BME280;62005;50.082;8.988;2023-07-22T03:42:54;100415.28;;;14.48;90.13
73700;BME280;62005;50.082;8.988;2023-07-22T03:45:23;100408.94;;;14.43;89.95
73700;BME280;62005;50.082;8.988;2023-07-22T03:47:57;100411.16;;;14.46;89.57
73700;BME280;62005;50.082;8.988;2023-07-22T03:50:23;100419.56;;;14.44;89.44
73700;BME280;62005;50.082;8.988;2023-07-22T03:52:48;100415.69;;;14.40;90.13
73700;BME280;62005;50.082;8.988;2023-07-22T03:55:14;100396.47;;;14.30;89.86
73700;BME280;62005;50.082;8.988;2023-07-22T03:57:39;100418.41;;;14.40;89.82
73700;BME280;62005;50.082;8.988;2023-07-22T04:00:05;100408.19;;;14.30;89.53
73700;BME280;62005;50.082;8.988;2023-07-22T04:02:34;100418.91;;;14.37;89.78
73700;BME280;62005;50.082;8.988;2023-07-22T04:04:59;100415.09;;;14.38;89.34
73700;BME280;62005;50.082;8.988;2023-07-22T04:07:25;100409.50;;;14.28;89.31
73700;BME280;62005;50.082;8.988;2023-07-22T04:09:50;100371.31;;;14.06;89.43
73700;BME280;62005;50.082;8.988;2023-07-22T04:12:15;100415.50;;;14.30;89.48
73700;BME280;62005;50.082;8.988;2023-07-22T04:14:43;100399.56;;;14.22;89.61
73700;BME280;62005;50.082;8.988;2023-07-22T04:17:09;100359.44;;;13.96;90.16
73700;BME280;62005;50.082;8.988;2023-07-22T04:19:34;100411.84;;;14.36;90.33
73700;BME280;62005;50.082;8.988;2023-07-22T04:22:00;100410.16;;;14.35;90.15
73700;BME280;62005;50.082;8.988;2023-07-22T04:24:32;100381.38;;;14.22;89.89
73700;BME280;62005;50.082;8.988;2023-07-22T04:26:57;100388.91;;;14.32;90.44
73700;BME280;62005;50.082;8.988;2023-07-22T04:29:23;100409.66;;;14.55;90.73
73700;BME280;62005;50.082;8.988;2023-07-22T04:31:48;100406.22;;;14.59;90.20
73700;BME280;62005;50.082;8.988;2023-07-22T04:34:13;100415.63;;;14.68;90.41
73700;BME280;62005;50.082;8.988;2023-07-22T04:36:39;100405.38;;;14.75;89.96
73700;BME280;62005;50.082;8.988;2023-07-22T04:39:05;100396.13;;;14.76;90.00
73700;BME280;62005;50.082;8.988;2023-07-22T04:41:31;100416.09;;;14.98;89.64
73700;BME280;62005;50.082;8.988;2023-07-22T04:44:10;100369.59;;;14.83;89.53
73700;BME280;62005;50.082;8.988;2023-07-22T04:46:37;100375.91;;;15.05;88.93
73700;BME280;62005;50.082;8.988;2023-07-22T04:49:03;100390.91;;;15.29;88.63
73700;BME280;62005;50.082;8.988;2023-07-22T04:51:28;100391.41;;;15.43;87.13
73700;BME280;62005;50.082;8.988;2023-07-22T04:54:11;100385.03;;;15.59;86.68
73700;BME280;62005;50.082;8.988;2023-07-22T04:56:46;100404.41;;;15.84;85.70
73700;BME280;62005;50.082;8.988;2023-07-22T04:59:17;100405.69;;;16.03;85.32
73700;BME280;62005;50.082;8.988;2023-07-22T05:01:42;100405.63;;;16.25;84.39
73700;BME280;62005;50.082;8.988;2023-07-22T05:04:32;100392.94;;;16.35;83.64
73700;BME280;62005;50.082;8.988;2023-07-22T05:06:57;100370.34;;;16.45;83.47
73700;BME280;62005;50.082;8.988;2023-07-22T05:09:23;100419.34;;;16.93;82.62
73700;BME280;62005;50.082;8.988;2023-07-22T05:11:48;100381.09;;;16.93;82.77
73700;BME280;62005;50.082;8.988;2023-07-22T05:14:13;100403.16;;;17.28;81.62
73700;BME280;62005;50.082;8.988;2023-07-22T05:16:39;100387.97;;;17.47;80.36
73700;BME280;62005;50.082;8.988;2023-07-22T05:19:04;100385.84;;;17.59;79.76
73700;BME280;62005;50.082;8.988;2023-07-22T05:21:30;100402.09;;;17.96;79.35
73700;BME280;62005;50.082;8.988;2023-07-22T05:23:59;100426.75;;;18.11;78.31
73700;BME280;62005;50.082;8.988;2023-07-22T05:26:39;100431.44;;;18.31;78.21
73700;BME280;62005;50.082;8.988;2023-07-22T05:29:04;100402.16;;;18.26;77.89
73700;BME280;62005;50.082;8.988;2023-07-22T05:31:30;100431.78;;;18.64;77.84
73700;BME280;62005;50.082;8.988;2023-07-22T05:33:56;100425.97;;;18.86;76.10
73700;BME280;62005;50.082;8.988;2023-07-22T05:36:21;100399.41;;;18.91;77.10
73700;BME280;62005;50.082;8.988;2023-07-22T05:38:46;100439.34;;;19.22;74.90
73700;BME280;62005;50.082;8.988;2023-07-22T05:41:12;100434.69;;;19.43;75.61
73700;BME280;62005;50.082;8.988;2023-07-22T05:46:41;100425.44;;;19.88;73.71
73700;BME280;62005;50.082;8.988;2023-07-22T05:49:07;100417.72;;;20.00;72.73
73700;BME280;62005;50.082;8.988;2023-07-22T05:51:32;100403.53;;;20.26;71.27
73700;BME280;62005;50.082;8.988;2023-07-22T05:54:06;100382.13;;;20.28;70.45
73700;BME280;62005;50.082;8.988;2023-07-22T05:56:31;100429.50;;;20.77;71.43
73700;BME280;62005;50.082;8.988;2023-07-22T05:58:57;100413.41;;;21.00;70.46
73700;BME280;62005;50.082;8.988;2023-07-22T06:01:23;100424.44;;;21.23;67.38
73700;BME280;62005;50.082;8.988;2023-07-22T06:03:49;100419.28;;;21.17;66.50
73700;BME280;62005;50.082;8.988;2023-07-22T06:06:21;100414.31;;;21.42;66.99
73700;BME280;62005;50.082;8.988;2023-07-22T06:08:46;100386.22;;;21.45;65.58
73700;BME280;62005;50.082;8.988;2023-07-22T06:11:11;100433.41;;;21.81;67.18
73700;BME280;62005;50.082;8.988;2023-07-22T06:13:37;100428.38;;;22.07;65.42
73700;BME280;62005;50.082;8.988;2023-07-22T06:16:02;100432.72;;;22.31;65.33
73700;BME280;62005;50.082;8.988;2023-07-22T06:18:28;100427.94;;;22.55;64.17
73700;BME280;62005;50.082;8.988;2023-07-22T06:21:06;100389.75;;;22.30;62.57
73700;BME280;62005;50.082;8.988;2023-07-22T06:23:53;100395.00;;;22.45;61.92
73700;BME280;62005;50.082;8.988;2023-07-22T06:26:29;100377.13;;;22.61;61.47
73700;BME280;62005;50.082;8.988;2023-07-22T06:29:04;100410.34;;;23.02;61.64
73700;BME280;62005;50.082;8.988;2023-07-22T06:35:11;100435.63;;;23.36;63.07
73700;BME280;62005;50.082;8.988;2023-07-22T06:37:37;100404.06;;;23.29;61.43
73700;BME280;62005;50.082;8.988;2023-07-22T06:40:02;100443.50;;;23.43;58.68
73700;BME280;62005;50.082;8.988;2023-07-22T06:42:34;100408.47;;;22.97;57.80
73700;BME280;62005;50.082;8.988;2023-07-22T06:44:59;100395.34;;;22.76;60.47
73700;BME280;62005;50.082;8.988;2023-07-22T06:47:24;100432.19;;;22.98;58.33
73700;BME280;62005;50.082;8.988;2023-07-22T06:49:50;100437.88;;;22.88;60.77
73700;BME280;62005;50.082;8.988;2023-07-22T06:52:18;100421.22;;;22.61;60.59
73700;BME280;62005;50.082;8.988;2023-07-22T06:54:44;100449.66;;;22.38;61.89
73700;BME280;62005;50.082;8.988;2023-07-22T06:57:09;100440.28;;;22.02;63.63
73700;BME280;62005;50.082;8.988;2023-07-22T06:59:34;100453.66;;;21.90;63.67
73700;BME280;62005;50.082;8.988;2023-07-22T07:02:00;100449.19;;;21.70;63.83
73700;BME280;62005;50.082;8.988;2023-07-22T07:04:26;100459.09;;;21.48;64.00
73700;BME280;62005;50.082;8.988;2023-07-22T07:06:51;100452.28;;;21.17;65.41
73700;BME280;62005;50.082;8.988;2023-07-22T07:09:16;100444.47;;;21.00;66.36
73700;BME280;62005;50.082;8.988;2023-07-22T07:11:42;100454.66;;;20.95;66.57
73700;BME280;62005;50.082;8.988;2023-07-22T07:14:07;100458.56;;;20.89;65.97
73700;BME280;62005;50.082;8.988;2023-07-22T07:16:33;100457.97;;;20.92;65.61
73700;BME280;62005;50.082;8.988;2023-07-22T07:19:00;100456.75;;;21.08;66.59
73700;BME280;62005;50.082;8.988;2023-07-22T07:21:26;100449.19;;;21.23;65.61
73700;BME280;62005;50.082;8.988;2023-07-22T07:23:52;100445.44;;;21.38;66.68
73700;BME280;62005;50.082;8.988;2023-07-22T07:26:18;100443.13;;;21.50;65.54
73700;BME280;62005;50.082;8.988;2023-07-22T07:28:44;100448.59;;;21.73;65.36
73700;BME280;62005;50.082;8.988;2023-07-22T07:31:10;100436.09;;;21.86;65.15
73700;BME280;62005;50.082;8.988;2023-07-22T07:33:35;100439.31;;;21.93;63.92
73700;BME280;62005;50.082;8.988;2023-07-22T07:36:02;100449.38;;;22.21;62.45
73700;BME280;62005;50.082;8.988;2023-07-22T07:38:28;100451.31;;;22.39;61.76
73700;BME280;62005;50.082;8.988;2023-07-22T07:41:04;100414.59;;;22.25;62.16
73700;BME280;62005;50.082;8.988;2023-07-22T07:43:33;100455.03;;;22.48;59.86
73700;BME280;62005;50.082;8.988;2023-07-22T07:46:17;100450.84;;;22.69;58.83
73700;BME280;62005;50.082;8.988;2023-07-22T07:48:47;100436.19;;;22.74;58.99
73700;BME280;62005;50.082;8.988;2023-07-22T07:51:13;100427.63;;;22.75;59.98
73700;BME280;62005;50.082;8.988;2023-07-22T07:53:40;100403.66;;;22.89;60.61
73700;BME280;62005;50.082;8.988;2023-07-22T07:56:09;100423.47;;;23.37;60.55
73700;BME280;62005;50.082;8.988;2023-07-22T07:58:34;100453.44;;;23.71;56.22
73700;BME280;62005;50.082;8.988;2023-07-22T08:01:00;100431.88;;;23.73;55.88
73700;BME280;62005;50.082;8.988;2023-07-22T08:03:25;100437.97;;;23.97;57.13
73700;BME280;62005;50.082;8.988;2023-07-22T08:05:50;100437.56;;;24.03;56.97
73700;BME280;62005;50.082;8.988;2023-07-22T08:08:16;100448.81;;;24.20;56.28
73700;BME280;62005;50.082;8.988;2023-07-22T08:10:41;100441.25;;;24.12;53.27
73700;BME280;62005;50.082;8.988;2023-07-22T08:13:08;100444.34;;;24.33;55.36
73700;BME280;62005;50.082;8.988;2023-07-22T08:15:36;100431.25;;;24.38;54.83
73700;BME280;62005;50.082;8.988;2023-07-22T08:21:52;100440.72;;;24.82;51.58
73700;BME280;62005;50.082;8.988;2023-07-22T08:24:24;100445.63;;;25.07;54.02
73700;BME280;62005;50.082;8.988;2023-07-22T08:26:49;100435.72;;;25.14;51.70
73700;BME280;62005;50.082;8.988;2023-07-22T08:29:14;100443.63;;;25.29;52.02
73700;BME280;62005;50.082;8.988;2023-07-22T08:31:40;100416.47;;;25.09;51.50
73700;BME280;62005;50.082;8.988;2023-07-22T08:34:05;100446.13;;;25.39;50.64
73700;BME280;62005;50.082;8.988;2023-07-22T08:36:31;100431.00;;;25.45;50.29
73700;BME280;62005;50.082;8.988;2023-07-22T08:38:57;100424.22;;;25.51;49.62
73700;BME280;62005;50.082;8.988;2023-07-22T08:41:23;100423.56;;;25.54;51.68
73700;BME280;62005;50.082;8.988;2023-07-22T08:43:51;100404.19;;;25.54;51.12
73700;BME280;62005;50.082;8.988;2023-07-22T08:46:19;100434.56;;;25.85;49.57
73700;BME280;62005;50.082;8.988;2023-07-22T08:48:47;100420.88;;;25.72;47.22
73700;BME280;62005;50.082;8.988;2023-07-22T08:51:16;100433.41;;;25.78;50.14
73700;BME280;62005;50.082;8.988;2023-07-22T08:53:43;100420.00;;;25.62;49.85
73700;BME280;62005;50.082;8.988;2023-07-22T08:56:09;100427.53;;;25.70;48.24
73700;BME280;62005;50.082;8.988;2023-07-22T08:58:35;100430.78;;;25.73;49.53
73700;BME280;62005;50.082;8.988;2023-07-22T09:01:01;100432.25;;;25.61;49.18
73700;BME280;62005;50.082;8.988;2023-07-22T09:03:27;100414.59;;;25.49;48.99
73700;BME280;62005;50.082;8.988;2023-07-22T09:05:54;100431.56;;;25.56;49.63
73700;BME280;62005;50.082;8.988;2023-07-22T09:08:19;100415.44;;;25.27;47.56
73700;BME280;62005;50.082;8.988;2023-07-22T09:10:46;100422.03;;;25.09;49.68
73700;BME280;62005;50.082;8.988;2023-07-22T09:13:13;100383.81;;;24.89;47.54
73700;BME280;62005;50.082;8.988;2023-07-22T09:15:42;100402.00;;;25.04;47.83
73700;BME280;62005;50.082;8.988;2023-07-22T09:18:07;100390.19;;;25.20;49.82
73700;BME280;62005;50.082;8.988;2023-07-22T09:20:33;100411.31;;;25.47;47.55
73700;BME280;62005;50.082;8.988;2023-07-22T09:23:00;100400.41;;;25.50;47.06
73700;BME280;62005;50.082;8.988;2023-07-22T09:25:28;100421.00;;;25.66;46.12
73700;BME280;62005;50.082;8.988;2023-07-22T09:27:55;100403.09;;;25.73;46.70
73700;BME280;62005;50.082;8.988;2023-07-22T09:30:24;100416.44;;;25.70;45.22
73700;BME280;62005;50.082;8.988;2023-07-22T09:32:50;100397.78;;;25.45;44.65
73700;BME280;62005;50.082;8.988;2023-07-22T09:35:17;100406.97;;;25.54;44.29
73700;BME280;62005;50.082;8.988;2023-07-22T09:37:43;100407.31;;;25.61;45.03
73700;BME280;62005;50.082;8.988;2023-07-22T09:40:18;100412.88;;;25.79;47.32
73700;BME280;62005;50.082;8.988;2023-07-22T09:42:49;100396.91;;;25.76;46.04
73700;BME280;62005;50.082;8.988;2023-07-22T09:45:16;100374.69;;;25.58;46.60
73700;BME280;62005;50.082;8.988;2023-07-22T09:47:48;100409.28;;;25.69;46.62
73700;BME280;62005;50.082;8.988;2023-07-22T09:50:16;100413.22;;;25.86;46.38
73700;BME280;62005;50.082;8.988;2023-07-22T09:52:49;100405.72;;;25.78;43.67
73700;BME280;62005;50.082;8.988;2023-07-22T09:55:17;100375.34;;;25.55;45.90
73700;BME280;62005;50.082;8.988;2023-07-22T09:57:46;100379.56;;;25.44;46.28
73700;BME280;62005;50.082;8.988;2023-07-22T10:00:13;100403.91;;;25.34;44.25
73700;BME280;62005;50.082;8.988;2023-07-22T10:02:42;100385.91;;;25.14;45.87
73700;BME280;62005;50.082;8.988;2023-07-22T10:05:13;100389.31;;;25.11;46.38
73700;BME280;62005;50.082;8.988;2023-07-22T10:07:43;100391.72;;;25.04;45.16
73700;BME280;62005;50.082;8.988;2023-07-22T10:10:11;100365.88;;;24.78;47.48
73700;BME280;62005;50.082;8.988;2023-07-22T10:12:37;100380.13;;;24.94;46.67
73700;BME280;62005;50.082;8.988;2023-07-22T10:15:04;100356.66;;;24.91;46.11
73700;BME280;62005;50.082;8.988;2023-07-22T10:17:30;100380.31;;;24.97;45.79
73700;BME280;62005;50.082;8.988;2023-07-22T10:19:56;100386.28;;;24.91;45.97
73700;BME280;62005;50.082;8.988;2023-07-22T10:22:21;100378.28;;;24.89;47.45
73700;BME280;62005;50.082;8.988;2023-07-22T10:24:48;100376.41;;;24.98;45.66
73700;BME280;62005;50.082;8.988;2023-07-22T10:27:15;100373.50;;;25.03;46.96
73700;BME280;62005;50.082;8.988;2023-07-22T10:29:42;100390.00;;;25.17;45.72
73700;BME280;62005;50.082;8.988;2023-07-22T10:32:10;100383.66;;;25.16;44.94
73700;BME280;62005;50.082;8.988;2023-07-22T10:34:35;100371.25;;;25.05;45.21
73700;BME280;62005;50.082;8.988;2023-07-22T10:37:01;100379.84;;;25.04;45.24
73700;BME280;62005;50.082;8.988;2023-07-22T10:39:28;100366.44;;;24.89;45.67
73700;BME280;62005;50.082;8.988;2023-07-22T10:42:23;100375.06;;;24.87;45.55
73700;BME280;62005;50.082;8.988;2023-07-22T10:45:18;100357.19;;;24.71;45.39
73700;BME280;62005;50.082;8.988;2023-07-22T10:48:22;100322.09;;;24.27;44.99
73700;BME280;62005;50.082;8.988;2023-07-22T10:50:54;100376.63;;;24.58;45.09
73700;BME280;62005;50.082;8.988;2023-07-22T10:59:54;100372.03;;;24.75;46.23
73700;BME280;62005;50.082;8.988;2023-07-22T11:02:28;100340.38;;;24.59;43.87
73700;BME280;62005;50.082;8.988;2023-07-22T11:04:57;100361.34;;;24.82;44.76
73700;BME280;62005;50.082;8.988;2023-07-22T11:07:42;100374.41;;;24.90;44.78
73700;BME280;62005;50.082;8.988;2023-07-22T11:10:28;100356.53;;;24.96;45.01
73700;BME280;62005;50.082;8.988;2023-07-22T11:12:54;100362.75;;;25.02;44.82
73700;BME280;62005;50.082;8.988;2023-07-22T11:15:19;100361.66;;;25.11;46.80
73700;BME280;62005;50.082;8.988;2023-07-22T11:17:45;100364.78;;;25.18;45.17
73700;BME280;62005;50.082;8.988;2023-07-22T11:20:10;100355.34;;;25.19;46.10
73700;BME280;62005;50.082;8.988;2023-07-22T11:22:39;100351.63;;;25.32;44.04
73700;BME280;62005;50.082;8.988;2023-07-22T11:25:06;100345.84;;;25.42;44.88
73700;BME280;62005;50.082;8.988;2023-07-22T11:27:31;100327.28;;;25.43;44.86
73700;BME280;62005;50.082;8.988;2023-07-22T11:29:58;100339.50;;;25.50;45.40
73700;BME280;62005;50.082;8.988;2023-07-22T11:32:23;100324.69;;;25.46;43.72
73700;BME280;62005;50.082;8.988;2023-07-22T11:34:51;100335.94;;;25.58;45.95
73700;BME280;62005;50.082;8.988;2023-07-22T11:37:18;100329.47;;;25.63;43.72
73700;BME280;62005;50.082;8.988;2023-07-22T11:39:43;100330.09;;;25.68;43.96
73700;BME280;62005;50.082;8.988;2023-07-22T11:42:09;100307.28;;;25.54;42.34
73700;BME280;62005;50.082;8.988;2023-07-22T11:44:36;100322.59;;;25.60;43.20
73700;BME280;62005;50.082;8.988;2023-07-22T11:47:04;100328.78;;;25.57;43.18
73700;BME280;62005;50.082;8.988;2023-07-22T11:49:41;100319.00;;;25.51;42.00
73700;BME280;62005;50.082;8.988;2023-07-22T11:52:07;100321.94;;;25.46;42.28
73700;BME280;62005;50.082;8.988;2023-07-22T11:54:34;100314.75;;;25.45;41.94
73700;BME280;62005;50.082;8.988;2023-07-22T11:57:29;100311.34;;;25.40;41.98
73700;BME280;62005;50.082;8.988;2023-07-22T11:59:55;100312.56;;;25.34;43.07
73700;BME280;62005;50.082;8.988;2023-07-22T12:02:26;100303.44;;;25.25;42.09
73700;BME280;62005;50.082;8.988;2023-07-22T12:07:25;100297.72;;;25.21;42.40
73700;BME280;62005;50.082;8.988;2023-07-22T12:09:51;100308.16;;;25.24;41.62
73700;BME280;62005;50.082;8.988;2023-07-22T12:12:16;100283.03;;;25.12;42.22
73700;BME280;62005;50.082;8.988;2023-07-22T12:14:42;100303.09;;;25.18;42.95
73700;BME280;62005;50.082;8.988;2023-07-22T12:17:10;100293.31;;;25.12;42.74
73700;BME280;62005;50.082;8.988;2023-07-22T12:19:36;100280.41;;;25.07;42.89
73700;BME280;62005;50.082;8.988;2023-07-22T12:22:01;100281.78;;;25.18;44.06
73700;BME280;62005;50.082;8.988;2023-07-22T12:24:27;100262.69;;;25.08;43.57
73700;BME280;62005;50.082;8.988;2023-07-22T12:26:53;100285.72;;;25.34;43.63
73700;BME280;62005;50.082;8.988;2023-07-22T12:29:18;100286.75;;;25.38;42.75
73700;BME280;62005;50.082;8.988;2023-07-22T12:31:44;100286.28;;;25.45;42.18
73700;BME280;62005;50.082;8.988;2023-07-22T12:34:09;100287.06;;;25.45;42.32
73700;BME280;62005;50.082;8.988;2023-07-22T12:36:35;100270.13;;;25.38;42.17
73700;BME280;62005;50.082;8.988;2023-07-22T12:39:00;100283.81;;;25.43;42.99
73700;BME280;62005;50.082;8.988;2023-07-22T12:41:25;100268.84;;;25.44;42.70
73700;BME280;62005;50.082;8.988;2023-07-22T12:43:51;100247.34;;;25.41;42.76
73700;BME280;62005;50.082;8.988;2023-07-22T12:46:17;100259.72;;;25.52;43.08
73700;BME280;62005;50.082;8.988;2023-07-22T12:48:42;100260.38;;;25.49;41.88
73700;BME280;62005;50.082;8.988;2023-07-22T12:51:07;100266.72;;;25.58;43.30
73700;BME280;62005;50.082;8.988;2023-07-22T12:53:34;100266.56;;;25.63;41.38
73700;BME280;62005;50.082;8.988;2023-07-22T12:55:59;100262.69;;;25.64;41.16
73700;BME280;62005;50.082;8.988;2023-07-22T12:58:27;100264.63;;;25.73;41.13
73700;BME280;62005;50.082;8.988;2023-07-22T13:00:52;100259.59;;;25.75;42.33
73700;BME280;62005;50.082;8.988;2023-07-22T13:03:17;100237.75;;;25.64;41.68
73700;BME280;62005;50.082;8.988;2023-07-22T13:05:43;100266.25;;;25.73;41.31
73700;BME280;62005;50.082;8.988;2023-07-22T13:08:08;100265.59;;;25.59;41.94
73700;BME280;62005;50.082;8.988;2023-07-22T13:10:37;100242.78;;;25.45;41.81
73700;BME280;62005;50.082;8.988;2023-07-22T13:13:04;100250.28;;;25.53;42.98
73700;BME280;62005;50.082;8.988;2023-07-22T13:15:30;100246.72;;;25.61;42.95
73700;BME280;62005;50.082;8.988;2023-07-22T13:17:55;100245.72;;;25.57;42.16
73700;BME280;62005;50.082;8.988;2023-07-22T13:20:21;100243.13;;;25.52;42.65